createdAt,value
2022-08-25T00:00:18.098Z,58.83
2022-08-25T00:02:55.531Z,58.85
2022-08-25T00:05:29.458Z,58.87
2022-08-25T00:08:00.327Z,59.04
2022-08-25T00:10:28.583Z,58.92
2022-08-25T00:12:56.300Z,58.93
2022-08-25T00:15:24.312Z,58.81
2022-08-25T00:17:52.289Z,58.79
2022-08-25T00:20:20.164Z,58.83
2022-08-25T00:22:49.942Z,58.63
2022-08-25T00:25:18.277Z,58.85
2022-08-25T00:27:47.535Z,58.88
2022-08-25T00:30:16.780Z,58.79
2022-08-25T00:32:55.043Z,58.82
2022-08-25T00:35:25.471Z,58.60
2022-08-25T00:37:54.703Z,58.61
2022-08-25T00:40:23.546Z,58.77
2022-08-25T00:42:51.405Z,58.55
2022-08-25T00:45:19.396Z,58.61
2022-08-25T00:47:47.191Z,58.49
2022-08-25T00:50:14.985Z,58.42
2022-08-25T00:52:46.188Z,58.60
2022-08-25T00:55:17.201Z,58.36
2022-08-25T00:57:47.496Z,58.30
2022-08-25T01:00:17.302Z,58.39
2022-08-25T01:02:45.093Z,58.36
2022-08-25T01:05:12.999Z,58.32
2022-08-25T01:07:42.310Z,58.10
2022-08-25T01:10:13.532Z,58.39
2022-08-25T01:12:42.746Z,58.04
2022-08-25T01:15:11.332Z,58.12
2022-08-25T01:17:46.496Z,57.88
2022-08-25T01:20:14.790Z,57.84
2022-08-25T01:22:44.210Z,57.97
2022-08-25T01:25:24.386Z,58.08
2022-08-25T01:27:52.211Z,57.67
2022-08-25T01:30:20.188Z,57.83
2022-08-25T01:32:47.939Z,57.94
2022-08-25T01:35:15.961Z,57.95
2022-08-25T01:37:45.147Z,57.87
2022-08-25T01:40:13.789Z,58.08
2022-08-25T01:42:48.237Z,57.71
2022-08-25T01:45:16.370Z,57.93
2022-08-25T01:47:44.123Z,57.70
2022-08-25T01:50:47.109Z,57.81
2022-08-25T01:53:24.247Z,57.60
2022-08-25T01:56:01.791Z,57.69
2022-08-25T01:58:31.357Z,57.36
2022-08-25T02:01:00.118Z,57.52
2022-08-25T02:03:28.749Z,57.37
2022-08-25T02:05:57.412Z,57.61
2022-08-25T02:08:26.563Z,57.29
2022-08-25T02:10:55.636Z,57.55
2022-08-25T02:13:26.891Z,57.57
2022-08-25T02:16:00.667Z,57.54
2022-08-25T02:18:28.903Z,57.30
2022-08-25T02:20:56.654Z,57.06
2022-08-25T02:23:24.355Z,57.17
2022-08-25T02:25:53.793Z,57.14
2022-08-25T02:28:21.505Z,57.17
2022-08-25T02:30:49.290Z,57.18
2022-08-25T02:33:17.105Z,57.04
2022-08-25T02:35:45.074Z,56.81
2022-08-25T02:38:12.839Z,56.91
2022-08-25T02:40:40.670Z,56.90
2022-08-25T02:43:09.755Z,56.82
2022-08-25T02:45:37.749Z,56.91
2022-08-25T02:48:05.723Z,56.87
2022-08-25T02:50:33.578Z,56.70
2022-08-25T02:53:01.376Z,56.61
2022-08-25T02:55:29.092Z,56.86
2022-08-25T02:57:56.772Z,56.63
2022-08-25T03:00:26.464Z,56.68
2022-08-25T03:02:54.289Z,56.77
2022-08-25T03:05:22.131Z,56.63
2022-08-25T03:07:49.818Z,56.49
2022-08-25T03:10:20.845Z,56.65
2022-08-25T03:12:48.572Z,56.67
2022-08-25T03:15:17.276Z,56.38
2022-08-25T03:17:47.351Z,56.39
2022-08-25T03:20:15.474Z,56.39
2022-08-25T03:22:43.485Z,56.17
2022-08-25T03:25:29.047Z,56.17
2022-08-25T03:27:56.808Z,56.31
2022-08-25T03:30:24.540Z,56.29
2022-08-25T03:32:53.772Z,56.17
2022-08-25T03:35:21.600Z,55.92
2022-08-25T03:37:49.301Z,56.02
2022-08-25T03:40:17.609Z,56.00
2022-08-25T03:42:46.025Z,56.02
2022-08-25T03:45:14.681Z,56.05
2022-08-25T03:47:42.388Z,55.83
2022-08-25T03:50:12.410Z,55.69
2022-08-25T03:52:51.137Z,55.79
2022-08-25T03:55:21.798Z,55.65
2022-08-25T03:57:49.617Z,55.79
2022-08-25T04:00:18.587Z,55.57
2022-08-25T04:02:46.990Z,55.43
2022-08-25T04:05:16.477Z,55.38
2022-08-25T04:07:44.263Z,55.48
2022-08-25T04:10:12.465Z,55.57
2022-08-25T04:12:40.637Z,55.59
2022-08-25T04:15:09.306Z,55.43
2022-08-25T04:17:38.618Z,55.31
2022-08-25T04:20:08.111Z,55.17
2022-08-25T04:22:38.379Z,55.31
2022-08-25T04:25:07.324Z,55.10
2022-08-25T04:27:35.104Z,55.24
2022-08-25T04:30:03.017Z,55.28
2022-08-25T04:32:32.205Z,55.35
2022-08-25T04:35:00.064Z,55.35
2022-08-25T04:37:27.836Z,55.16
2022-08-25T04:39:56.935Z,54.99
2022-08-25T04:42:26.338Z,55.25
2022-08-25T04:44:54.412Z,54.97
2022-08-25T04:47:22.141Z,55.05
2022-08-25T04:49:50.003Z,54.61
2022-08-25T04:52:17.872Z,51.44
2022-08-25T04:54:45.584Z,50.74
2022-08-25T04:57:14.736Z,50.35
2022-08-25T04:59:42.462Z,50.22
2022-08-25T05:02:10.282Z,49.64
2022-08-25T05:04:46.961Z,49.45
2022-08-25T05:07:14.672Z,49.44
2022-08-25T05:09:42.512Z,49.17
2022-08-25T05:12:10.523Z,49.39
2022-08-25T05:14:41.656Z,48.99
2022-08-25T05:17:09.367Z,49.02
2022-08-25T05:19:37.238Z,48.92
2022-08-25T05:22:05.015Z,48.89
2022-08-25T05:24:32.744Z,48.93
2022-08-25T05:27:00.508Z,49.07
2022-08-25T05:29:28.226Z,49.07
2022-08-25T05:31:57.497Z,49.28
2022-08-25T05:34:25.748Z,49.05
2022-08-25T05:36:54.569Z,48.62
2022-08-25T05:39:22.542Z,48.78
2022-08-25T05:41:51.616Z,48.69
2022-08-25T05:44:21.391Z,48.87
2022-08-25T05:46:49.675Z,48.91
2022-08-25T05:49:18.852Z,48.58
2022-08-25T05:51:46.617Z,48.96
2022-08-25T05:54:14.315Z,48.92
2022-08-25T05:56:42.056Z,48.81
2022-08-25T05:59:10.495Z,48.58
2022-08-25T06:01:56.168Z,48.90
2022-08-25T06:04:25.244Z,48.82
2022-08-25T06:06:54.879Z,48.84
2022-08-25T06:09:23.155Z,49.41
2022-08-25T06:11:54.641Z,49.60
2022-08-25T06:14:23.722Z,50.08
2022-08-25T06:16:52.213Z,49.96
2022-08-25T06:19:21.229Z,50.12
2022-08-25T06:21:50.592Z,50.17
2022-08-25T06:24:18.563Z,50.27
2022-08-25T06:26:46.259Z,50.20
2022-08-25T06:29:15.018Z,50.33
2022-08-25T06:31:43.377Z,50.35
2022-08-25T06:34:11.866Z,50.44
2022-08-25T06:36:39.974Z,50.54
2022-08-25T06:39:10.613Z,50.50
2022-08-25T06:41:47.354Z,50.50
2022-08-25T06:44:15.126Z,50.34
2022-08-25T06:46:42.837Z,50.36
2022-08-25T06:49:11.556Z,50.48
2022-08-25T06:51:39.352Z,50.58
2022-08-25T06:54:07.786Z,50.66
2022-08-25T06:56:37.255Z,50.97
2022-08-25T06:59:06.291Z,50.85
2022-08-25T07:01:34.747Z,50.65
2022-08-25T07:04:04.986Z,50.91
2022-08-25T07:06:36.500Z,50.92
2022-08-25T07:09:05.387Z,51.11
2022-08-25T07:11:34.426Z,50.84
2022-08-25T07:14:04.175Z,50.93
2022-08-25T07:16:33.995Z,50.91
2022-08-25T07:19:02.553Z,50.97
2022-08-25T07:21:33.695Z,50.98
2022-08-25T07:24:06.377Z,50.96
2022-08-25T07:26:37.727Z,50.99
2022-08-25T07:29:09.012Z,51.24
2022-08-25T07:31:37.455Z,51.02
2022-08-25T07:34:22.597Z,51.16
2022-08-25T07:36:50.663Z,51.20
2022-08-25T07:39:18.626Z,51.16
2022-08-25T07:41:52.011Z,51.35
2022-08-25T07:44:22.201Z,51.39
2022-08-25T07:46:50.583Z,51.34
2022-08-25T07:49:23.095Z,51.23
2022-08-25T07:52:04.742Z,51.07
2022-08-25T07:54:35.072Z,51.41
2022-08-25T07:57:03.492Z,51.31
2022-08-25T07:59:38.941Z,51.33
2022-08-25T08:02:08.339Z,51.17
2022-08-25T08:04:37.339Z,51.18
2022-08-25T08:07:05.128Z,51.28
2022-08-25T08:09:39.803Z,51.23
2022-08-25T08:12:08.205Z,51.36
2022-08-25T08:14:39.561Z,51.33
2022-08-25T08:17:12.948Z,51.27
2022-08-25T08:19:44.871Z,51.46
2022-08-25T08:22:15.073Z,51.25
2022-08-25T08:24:54.181Z,51.64
2022-08-25T08:27:22.979Z,51.79
2022-08-25T08:29:52.287Z,52.04
2022-08-25T08:32:20.444Z,51.98
2022-08-25T08:34:51.430Z,52.37
2022-08-25T08:37:21.973Z,52.30
2022-08-25T08:39:51.289Z,52.48
2022-08-25T08:42:22.419Z,52.35
2022-08-25T08:45:09.478Z,52.25
2022-08-25T08:47:48.788Z,52.59
2022-08-25T08:50:28.047Z,52.73
2022-08-25T08:53:03.461Z,52.60
2022-08-25T08:55:34.366Z,52.72
2022-08-25T08:58:04.286Z,52.79
2022-08-25T09:00:34.425Z,53.07
2022-08-25T09:03:06.293Z,52.95
2022-08-25T09:05:42.766Z,53.21
2022-08-25T09:08:14.797Z,53.30
2022-08-25T09:10:58.576Z,53.50
2022-08-25T09:13:31.599Z,53.43
2022-08-25T09:16:34.010Z,53.24
2022-08-25T09:19:09.418Z,53.24
2022-08-25T09:21:41.752Z,53.49
2022-08-25T09:24:22.531Z,53.49
2022-08-25T09:26:55.077Z,53.31
2022-08-25T09:29:26.257Z,53.48
2022-08-25T09:31:58.437Z,53.52
2022-08-25T09:34:32.259Z,53.59
2022-08-25T09:37:00.086Z,53.46
2022-08-25T09:39:34.641Z,53.84
2022-08-25T09:42:04.400Z,54.06
2022-08-25T09:44:40.372Z,53.98
2022-08-25T09:47:15.815Z,53.90
2022-08-25T09:49:47.802Z,53.88
2022-08-25T09:52:22.211Z,53.72
2022-08-25T09:54:50.326Z,54.26
2022-08-25T09:57:34.953Z,54.03
2022-08-25T10:00:16.793Z,54.15
2022-08-25T10:02:48.371Z,54.64
2022-08-25T10:05:19.348Z,54.36
2022-08-25T10:07:52.939Z,54.78
2022-08-25T10:10:24.599Z,54.93
2022-08-25T10:12:52.444Z,54.77
2022-08-25T10:15:29.795Z,54.61
2022-08-25T10:18:21.921Z,55.00
2022-08-25T10:21:02.744Z,54.91
2022-08-25T10:23:31.876Z,54.99
2022-08-25T10:26:06.330Z,55.03
2022-08-25T10:28:39.025Z,55.02
2022-08-25T10:31:11.211Z,54.88
2022-08-25T10:33:45.964Z,55.08
2022-08-25T10:36:21.451Z,55.02
2022-08-25T10:38:57.052Z,55.16
2022-08-25T10:41:35.845Z,54.84
2022-08-25T10:44:28.687Z,54.96
2022-08-25T10:47:06.704Z,54.91
2022-08-25T10:49:42.416Z,54.79
2022-08-25T10:52:15.447Z,54.52
2022-08-25T10:54:46.675Z,54.87
2022-08-25T10:57:21.646Z,54.75
2022-08-25T10:59:53.414Z,54.73
2022-08-25T11:02:38.319Z,54.54
2022-08-25T11:05:12.629Z,54.31
2022-08-25T11:07:43.458Z,54.25
2022-08-25T11:10:13.360Z,54.11
2022-08-25T11:12:46.084Z,54.12
2022-08-25T11:15:24.646Z,54.67
2022-08-25T11:17:56.002Z,54.48
2022-08-25T11:20:33.679Z,54.64
2022-08-25T11:23:08.026Z,54.77
2022-08-25T11:25:38.280Z,54.64
2022-08-25T11:28:10.967Z,54.45
2022-08-25T11:30:40.366Z,54.51
2022-08-25T11:33:10.824Z,54.57
2022-08-25T11:35:43.426Z,54.67
2022-08-25T11:38:24.265Z,54.53
2022-08-25T11:41:00.355Z,54.51
2022-08-25T11:43:40.586Z,54.52
2022-08-25T11:46:17.621Z,54.50
2022-08-25T11:48:56.307Z,54.62
2022-08-25T11:51:33.724Z,54.59
2022-08-25T11:54:17.763Z,54.68
2022-08-25T11:56:53.061Z,54.34
2022-08-25T11:59:35.736Z,54.14
2022-08-25T12:02:03.576Z,53.97
2022-08-25T12:04:44.239Z,53.90
2022-08-25T12:07:28.109Z,53.73
2022-08-25T12:10:14.003Z,53.34
2022-08-25T12:12:57.337Z,53.57
2022-08-25T12:15:26.898Z,53.43
2022-08-25T12:18:09.898Z,53.63
2022-08-25T12:20:57.376Z,53.49
2022-08-25T12:23:30.282Z,53.19
2022-08-25T12:25:59.673Z,51.65
2022-08-25T12:28:42.669Z,50.39
2022-08-25T12:31:18.788Z,50.52
2022-08-25T12:33:53.480Z,51.26
2022-08-25T12:36:28.842Z,51.22
2022-08-25T12:39:09.084Z,51.64
2022-08-25T12:41:37.211Z,51.88
2022-08-25T12:44:16.800Z,52.33
2022-08-25T12:46:48.336Z,52.24
2022-08-25T12:49:30.951Z,52.69
2022-08-25T12:52:02.127Z,52.75
2022-08-25T12:54:43.574Z,52.66
2022-08-25T12:57:25.019Z,52.30
2022-08-25T12:59:58.747Z,52.62
2022-08-25T13:02:52.052Z,52.50
2022-08-25T13:05:43.114Z,52.66
2022-08-25T13:08:26.824Z,51.93
2022-08-25T13:10:57.152Z,52.38
2022-08-25T13:13:32.791Z,52.46
2022-08-25T13:16:01.645Z,52.42
2022-08-25T13:18:31.507Z,52.41
2022-08-25T13:21:06.779Z,52.66
2022-08-25T13:23:36.921Z,52.72
2022-08-25T13:26:10.522Z,52.59
2022-08-25T13:28:40.858Z,52.37
2022-08-25T13:31:17.391Z,52.75
2022-08-25T13:33:53.457Z,52.48
2022-08-25T13:36:43.453Z,52.65
2022-08-25T13:39:20.024Z,52.63
2022-08-25T13:42:14.651Z,52.72
2022-08-25T13:44:52.287Z,52.65
2022-08-25T13:47:43.340Z,52.31
2022-08-25T13:50:18.192Z,52.41
2022-08-25T13:52:49.834Z,52.61
2022-08-25T13:55:27.341Z,52.66
2022-08-25T13:57:58.274Z,52.72
2022-08-25T14:00:31.773Z,52.23
2022-08-25T14:03:00.574Z,51.95
2022-08-25T14:05:40.426Z,52.35
2022-08-25T14:08:28.418Z,52.35
2022-08-25T14:11:03.664Z,52.24
2022-08-25T14:13:34.885Z,52.42
2022-08-25T14:16:09.997Z,52.58
2022-08-25T14:18:38.035Z,52.74
2022-08-25T14:21:10.854Z,52.46
2022-08-25T14:23:39.816Z,52.56
2022-08-25T14:26:07.766Z,52.33
2022-08-25T14:28:39.848Z,52.27
2022-08-25T14:31:09.362Z,52.74
2022-08-25T14:33:38.707Z,52.47
2022-08-25T14:36:08.224Z,52.53
2022-08-25T14:38:38.985Z,52.61
2022-08-25T14:43:38.479Z,52.51
2022-08-25T14:46:11.029Z,52.55
2022-08-25T14:48:44.828Z,52.49
2022-08-25T14:51:13.186Z,52.38
2022-08-25T14:53:41.371Z,52.46
2022-08-25T14:56:10.293Z,52.98
2022-08-25T14:58:48.513Z,52.84
2022-08-25T15:01:28.745Z,52.83
2022-08-25T15:03:59.180Z,52.34
2022-08-25T15:06:27.751Z,52.17
2022-08-25T15:09:11.372Z,52.62
2022-08-25T15:11:41.747Z,52.63
2022-08-25T15:14:12.198Z,53.06
2022-08-25T15:16:42.459Z,53.38
2022-08-25T15:19:15.936Z,52.80
2022-08-25T15:21:47.895Z,52.72
2022-08-25T15:24:17.254Z,53.24
2022-08-25T15:29:22.245Z,54.03
2022-08-25T15:31:50.827Z,53.90
2022-08-25T15:34:18.614Z,54.10
2022-08-25T15:36:47.022Z,54.17
2022-08-25T15:39:15.067Z,54.19
2022-08-25T15:41:46.351Z,54.23
2022-08-25T15:44:17.431Z,54.10
2022-08-25T15:46:50.148Z,54.75
2022-08-25T15:49:20.757Z,54.45
2022-08-25T15:51:51.685Z,54.39
2022-08-25T15:54:20.196Z,54.91
2022-08-25T15:56:47.952Z,53.92
2022-08-25T15:59:16.026Z,54.41
2022-08-25T16:01:44.265Z,54.53
2022-08-25T16:04:14.830Z,54.37
2022-08-25T16:06:42.701Z,55.68
2022-08-25T16:09:10.462Z,54.91
2022-08-25T16:11:38.971Z,54.87
2022-08-25T16:14:07.151Z,54.61
2022-08-25T16:16:35.222Z,54.43
2022-08-25T16:19:03.577Z,54.63
2022-08-25T16:21:35.008Z,54.23
2022-08-25T16:24:07.398Z,54.27
2022-08-25T16:26:36.516Z,54.12
2022-08-25T16:29:06.482Z,54.10
2022-08-25T16:31:34.487Z,54.00
2022-08-25T16:34:02.406Z,53.81
2022-08-25T16:36:30.224Z,53.87
2022-08-25T16:39:00.978Z,53.81
2022-08-25T16:41:34.011Z,53.69
2022-08-25T16:44:02.265Z,53.93
2022-08-25T16:46:31.257Z,53.31
2022-08-25T16:49:01.104Z,53.44
2022-08-25T16:51:29.560Z,53.38
2022-08-25T16:54:15.384Z,53.40
2022-08-25T16:56:55.057Z,53.53
2022-08-25T16:59:23.629Z,53.47
2022-08-25T17:01:52.405Z,53.50
2022-08-25T17:04:20.637Z,53.36
2022-08-25T17:06:49.573Z,53.11
2022-08-25T17:09:23.844Z,52.88
2022-08-25T17:11:56.846Z,52.99
2022-08-25T17:14:24.696Z,52.91
2022-08-25T17:16:54.728Z,52.77
2022-08-25T17:19:23.955Z,52.74
2022-08-25T17:21:52.384Z,52.58
2022-08-25T17:24:20.882Z,52.47
2022-08-25T17:26:50.131Z,52.45
2022-08-25T17:29:19.395Z,52.19
2022-08-25T17:31:48.348Z,52.28
2022-08-25T17:34:20.337Z,52.39
2022-08-25T17:36:51.352Z,52.51
2022-08-25T17:39:22.087Z,52.37
2022-08-25T17:41:50.613Z,52.31
2022-08-25T17:44:19.881Z,52.39
2022-08-25T17:46:48.066Z,52.36
2022-08-25T17:49:16.053Z,52.36
2022-08-25T17:51:43.946Z,52.18
2022-08-25T17:54:13.090Z,52.14
2022-08-25T17:56:41.116Z,52.24
2022-08-25T17:59:08.992Z,52.17
2022-08-25T18:01:42.218Z,52.00
2022-08-25T18:04:17.341Z,51.89
2022-08-25T18:06:45.879Z,52.08
2022-08-25T18:09:14.215Z,51.93
2022-08-25T18:11:42.413Z,51.81
2022-08-25T18:14:11.366Z,51.75
2022-08-25T18:16:40.832Z,51.57
2022-08-25T18:19:10.795Z,51.69
2022-08-25T18:21:38.720Z,51.72
2022-08-25T18:24:06.766Z,51.83
2022-08-25T18:26:34.692Z,51.76
2022-08-25T18:29:02.576Z,51.88
2022-08-25T18:31:30.411Z,52.29
2022-08-25T18:33:59.498Z,52.23
2022-08-25T18:36:27.240Z,52.57
2022-08-25T18:39:13.466Z,52.73
2022-08-25T18:41:42.902Z,52.84
2022-08-25T18:44:15.678Z,53.11
2022-08-25T18:46:45.515Z,53.17
2022-08-25T18:49:17.192Z,53.20
2022-08-25T18:51:45.746Z,53.21
2022-08-25T18:54:23.120Z,53.29
2022-08-25T18:56:51.834Z,53.59
2022-08-25T18:59:19.549Z,53.45
2022-08-25T19:01:47.465Z,53.63
2022-08-25T19:04:16.874Z,53.63
2022-08-25T19:06:45.176Z,53.78
2022-08-25T19:09:12.969Z,53.72
2022-08-25T19:11:40.716Z,53.79
2022-08-25T19:14:12.421Z,54.09
2022-08-25T19:16:47.165Z,54.04
2022-08-25T19:19:17.659Z,53.84
2022-08-25T19:21:48.329Z,53.98
2022-08-25T19:24:19.268Z,54.15
2022-08-25T19:26:47.316Z,54.00
2022-08-25T19:29:18.298Z,54.18
2022-08-25T19:31:46.810Z,54.08
2022-08-25T19:34:18.723Z,53.98
2022-08-25T19:36:50.973Z,54.15
2022-08-25T19:39:18.783Z,54.18
2022-08-25T19:41:46.918Z,54.09
2022-08-25T19:44:16.403Z,54.17
2022-08-25T19:46:45.218Z,54.25
2022-08-25T19:49:15.366Z,54.21
2022-08-25T19:51:44.745Z,54.05
2022-08-25T19:54:14.908Z,54.31
2022-08-25T19:56:54.898Z,54.41
2022-08-25T19:59:25.368Z,54.44
2022-08-25T20:01:53.740Z,54.61
2022-08-25T20:04:24.530Z,54.43
2022-08-25T20:06:52.700Z,54.31
2022-08-25T20:09:39.355Z,54.09
2022-08-25T20:12:10.292Z,54.09
2022-08-25T20:14:38.333Z,54.16
2022-08-25T20:17:23.910Z,54.12
2022-08-25T20:19:55.453Z,54.05
2022-08-25T20:22:26.104Z,54.11
2022-08-25T20:24:57.526Z,53.91
2022-08-25T20:27:34.054Z,53.93
2022-08-25T20:30:03.234Z,54.03
2022-08-25T20:32:32.380Z,53.81
2022-08-25T20:35:00.383Z,53.78
2022-08-25T20:37:28.196Z,53.81
2022-08-25T20:39:57.344Z,53.84
2022-08-25T20:42:25.142Z,53.82
2022-08-25T20:44:54.697Z,53.73
2022-08-25T20:47:22.802Z,53.65
2022-08-25T20:49:50.559Z,53.48
2022-08-25T20:52:19.509Z,53.53
2022-08-25T20:54:50.413Z,53.49
2022-08-25T20:57:25.773Z,53.42
2022-08-25T20:59:54.732Z,53.49
2022-08-25T21:02:22.985Z,53.61
2022-08-25T21:04:50.791Z,53.63
2022-08-25T21:07:18.549Z,53.62
2022-08-25T21:09:46.526Z,53.47
2022-08-25T21:12:15.251Z,53.73
2022-08-25T21:14:44.865Z,53.51
2022-08-25T21:17:12.994Z,53.54
2022-08-25T21:19:41.878Z,53.81
2022-08-25T21:22:09.803Z,53.74
2022-08-25T21:24:39.077Z,53.96
2022-08-25T21:27:07.207Z,53.84
2022-08-25T21:29:34.967Z,53.66
2022-08-25T21:32:04.444Z,54.02
2022-08-25T21:34:32.212Z,53.80
2022-08-25T21:37:00.393Z,54.04
2022-08-25T21:39:32.080Z,54.05
2022-08-25T21:42:00.593Z,54.10
2022-08-25T21:44:28.473Z,54.00
2022-08-25T21:46:57.700Z,54.19
2022-08-25T21:49:26.753Z,54.12
2022-08-25T21:52:03.331Z,54.20
2022-08-25T21:54:33.687Z,54.14
2022-08-25T21:57:03.129Z,54.31
2022-08-25T21:59:32.322Z,54.33
2022-08-25T22:02:01.118Z,54.32
2022-08-25T22:04:30.815Z,54.28
2022-08-25T22:06:59.260Z,54.17
2022-08-25T22:09:28.252Z,54.49
2022-08-25T22:11:56.301Z,54.54
2022-08-25T22:14:26.127Z,54.57
2022-08-25T22:16:54.590Z,54.53
2022-08-25T22:19:23.300Z,54.74
2022-08-25T22:21:54.256Z,54.51
2022-08-25T22:24:22.201Z,54.80
2022-08-25T22:26:50.348Z,54.68
2022-08-25T22:29:24.787Z,54.60
2022-08-25T22:31:53.099Z,54.84
2022-08-25T22:34:31.665Z,54.91
2022-08-25T22:37:01.591Z,54.89
2022-08-25T22:39:29.808Z,54.73
2022-08-25T22:41:57.608Z,54.94
2022-08-25T22:44:26.202Z,54.98
2022-08-25T22:46:54.152Z,54.98
2022-08-25T22:49:22.060Z,55.01
2022-08-25T22:51:49.957Z,55.14
2022-08-25T22:54:20.029Z,55.13
2022-08-25T22:56:47.751Z,55.29
2022-08-25T22:59:15.491Z,55.15
2022-08-25T23:01:44.923Z,55.42
2022-08-25T23:04:13.668Z,55.37
2022-08-25T23:06:41.463Z,55.44
2022-08-25T23:09:10.800Z,55.40
2022-08-25T23:11:40.101Z,55.56
2022-08-25T23:14:10.349Z,55.42
2022-08-25T23:16:48.462Z,55.73
2022-08-25T23:19:17.864Z,55.86
2022-08-25T23:22:03.639Z,55.66
2022-08-25T23:24:32.398Z,55.73
2022-08-25T23:27:02.938Z,55.68
2022-08-25T23:29:32.454Z,55.73
2022-08-25T23:32:00.177Z,55.99
2022-08-25T23:34:28.789Z,56.04
2022-08-25T23:36:57.300Z,55.97
2022-08-25T23:39:25.426Z,56.02
2022-08-25T23:41:53.200Z,55.85
2022-08-25T23:44:23.206Z,56.04
2022-08-25T23:46:53.430Z,56.18
2022-08-25T23:49:22.549Z,56.22
2022-08-25T23:51:52.904Z,56.43
2022-08-25T23:54:21.451Z,56.41
2022-08-25T23:56:52.313Z,56.42
2022-08-25T23:59:24.827Z,56.25
